Time;durP1;ratioP1;P1;durP2;ratioP2;P2;SDS_P1;SDS_P2;PMS_P1;PMS_P2;Temp;Humidity;BMP_temperature;BMP_pressure;BME280_temperature;BME280_humidity;BME280_pressure;Samples;Min_cycle;Max_cycle;Signal;HPM_P1;HPM_P2
2022/12/30 00:01:20;;;;;;;;;;;;;;;18.32;45.76;100738.63;5131460;28;19927;-56
2022/12/30 00:03:46;;;;;;;;;;;;;;;18.32;45.55;100739.44;5106328;27;19930;-56
2022/12/30 00:06:14;;;;;;;;;;;;;;;18.32;45.73;100735.84;5150976;27;20286;-56
2022/12/30 00:08:48;;;;;;;;;;;;;;;18.32;45.61;100738.63;5133481;27;19958;-56
2022/12/30 00:11:22;;;;;;;;;;;;;;;18.31;45.79;100740.53;5151848;27;20093;-56
2022/12/30 00:33:19;;;;;;;;;;;;;;;18.32;45.73;100749.63;5096188;28;20390;-56
2022/12/30 00:35:45;;;;;;;;;;;;;;;18.31;45.68;100754.34;5110177;28;19959;-56
2022/12/30 00:38:11;;;;;;;;;;;;;;;18.32;45.50;100761.50;5109816;28;19928;-56
2022/12/30 00:40:36;;;;;;;;;;;;;;;18.32;45.73;100755.97;5110428;28;20259;-56
2022/12/30 00:43:09;;;;;;;;;;;;;;;18.32;45.76;100758.72;5113166;28;19975;-56
2022/12/30 00:45:36;;;;;;;;;;;;;;;18.32;45.65;100769.75;5112732;27;19928;-56
2022/12/30 00:56:18;;;;;;;;;;;;;;;18.33;45.68;100765.06;5094646;28;19963;-56
2022/12/30 00:58:44;;;;;;;;;;;;;;;18.32;45.70;100764.25;5119115;28;19934;-56
2022/12/30 01:01:10;;;;;;;;;;;;;;;18.31;45.54;100768.13;5130661;28;20383;-56
2022/12/30 01:03:35;;;;;;;;;;;;;;;18.33;45.58;100773.34;5103717;28;19923;-55
2022/12/30 01:06:05;;;;;;;;;;;;;;;18.32;45.54;100768.94;5109415;28;20333;-56
2022/12/30 01:08:31;;;;;;;;;;;;;;;18.32;45.56;100763.44;5110802;28;19924;-56
2022/12/30 01:10:56;;;;;;;;;;;;;;;18.32;45.77;100766.19;5113418;28;19927;-56
2022/12/30 01:13:22;;;;;;;;;;;;;;;18.32;45.77;100769.75;5113488;28;19924;-56
2022/12/30 01:15:48;;;;;;;;;;;;;;;18.32;45.73;100775.28;5112875;28;19936;-56
2022/12/30 01:18:13;;;;;;;;;;;;;;;18.32;45.49;100774.44;5112470;27;19938;-56
2022/12/30 01:20:39;;;;;;;;;;;;;;;18.32;45.62;100774.44;5134009;28;19923;-56
2022/12/30 01:23:04;;;;;;;;;;;;;;;18.31;45.57;100779.16;5130408;28;19953;-56
2022/12/30 01:25:30;;;;;;;;;;;;;;;18.32;45.79;100788.22;5112928;28;20295;-56
2022/12/30 01:27:55;;;;;;;;;;;;;;;18.32;45.77;100785.47;5115877;28;19927;-56
2022/12/30 01:30:21;;;;;;;;;;;;;;;18.32;45.86;100791.00;5133657;28;20317;-56
2022/12/30 01:32:47;;;;;;;;;;;;;;;18.32;45.73;100794.56;5133870;28;19927;-56
2022/12/30 01:35:12;;;;;;;;;;;;;;;18.32;45.63;100791.00;5112886;28;19928;-56
2022/12/30 01:37:38;;;;;;;;;;;;;;;18.32;45.57;100799.25;5113039;28;19938;-56
2022/12/30 01:40:04;;;;;;;;;;;;;;;18.32;45.67;100797.31;5112507;28;20357;-56
2022/12/30 01:42:30;;;;;;;;;;;;;;;18.33;45.76;100803.66;5112804;28;20189;-56
2022/12/30 01:44:57;;;;;;;;;;;;;;;18.32;45.61;100799.25;5118032;27;19931;-56
2022/12/30 01:47:29;;;;;;;;;;;;;;;18.32;45.74;100800.09;5112588;28;19924;-56
2022/12/30 01:49:57;;;;;;;;;;;;;;;18.33;45.68;100803.66;5112877;28;20215;-56
2022/12/30 01:52:23;;;;;;;;;;;;;;;18.32;45.59;100804.78;5112683;28;20004;-56
2022/12/30 01:54:49;;;;;;;;;;;;;;;18.32;45.75;100802.84;5093828;28;19924;-56
2022/12/30 01:57:14;;;;;;;;;;;;;;;18.31;45.56;100814.97;5112805;28;19927;-56
2022/12/30 01:59:40;;;;;;;;;;;;;;;18.32;45.64;100808.34;5129783;28;19927;-56
2022/12/30 02:02:05;;;;;;;;;;;;;;;18.32;45.58;100807.53;5114750;28;20287;-56
2022/12/30 02:04:31;;;;;;;;;;;;;;;18.32;45.74;100808.34;5099415;28;20043;-56
2022/12/30 02:09:32;;;;;;;;;;;;;;;18.32;45.59;100799.25;5190504;27;20072;-56
2022/12/30 02:11:58;;;;;;;;;;;;;;;18.32;45.83;100804.78;5189619;27;19923;-56
2022/12/30 02:14:24;;;;;;;;;;;;;;;18.31;45.70;100801.19;5170304;27;20291;-56
2022/12/30 02:17:09;;;;;;;;;;;;;;;18.32;45.64;100800.09;5189919;27;20213;-56
2022/12/30 02:19:43;;;;;;;;;;;;;;;18.32;45.59;100802.03;5173669;27;20340;-56
2022/12/30 02:22:09;;;;;;;;;;;;;;;18.32;45.85;100793.75;5189670;27;20331;-56
2022/12/30 02:24:40;;;;;;;;;;;;;;;18.32;45.52;100808.34;5189021;27;19927;-56
2022/12/30 02:27:10;;;;;;;;;;;;;;;18.32;45.73;100813.88;5189735;27;19926;-56
2022/12/30 02:29:48;;;;;;;;;;;;;;;18.32;45.75;100816.63;5189346;27;20391;-56
2022/12/30 02:32:20;;;;;;;;;;;;;;;18.32;45.65;100816.63;5189778;27;20339;-56
2022/12/30 02:34:50;;;;;;;;;;;;;;;18.32;45.78;100816.63;5189423;27;20405;-56
2022/12/30 02:37:32;;;;;;;;;;;;;;;18.32;45.59;100816.63;5189257;27;20281;-56
2022/12/30 02:40:04;;;;;;;;;;;;;;;18.32;45.81;100822.13;5189438;27;19954;-56
2022/12/30 02:45:38;;;;;;;;;;;;;;;18.32;45.87;100816.63;5152435;27;20390;-56
2022/12/30 02:48:06;;;;;;;;;;;;;;;18.32;45.66;100813.03;5152699;27;20066;-56
2022/12/30 02:53:21;;;;;;;;;;;;;;;18.33;45.51;100817.44;5137893;27;20359;-56
2022/12/30 02:55:47;;;;;;;;;;;;;;;18.32;45.77;100818.56;5168029;27;19971;-56
2022/12/30 02:58:13;;;;;;;;;;;;;;;18.32;45.63;100811.13;5173346;27;20290;-56
2022/12/30 03:04:03;;;;;;;;;;;;;;;18.31;45.77;100812.22;5154552;27;19927;-56
2022/12/30 03:09:28;;;;;;;;;;;;;;;18.32;45.58;100794.56;5190142;27;19925;-56
2022/12/30 03:12:13;;;;;;;;;;;;;;;18.32;45.51;100800.09;5174245;27;19965;-56
2022/12/30 03:14:42;;;;;;;;;;;;;;;18.32;45.78;100800.09;5173870;27;19922;-56
2022/12/30 03:17:10;;;;;;;;;;;;;;;18.32;45.75;100800.09;5189917;27;19923;-56
2022/12/30 03:19:39;;;;;;;;;;;;;;;18.33;45.52;100798.16;5189593;27;20009;-56
2022/12/30 03:22:05;;;;;;;;;;;;;;;18.32;45.75;100788.22;5189290;27;19934;-56
2022/12/30 03:27:17;;;;;;;;;;;;;;;18.31;45.76;100787.41;5173364;27;19948;-56
2022/12/30 03:29:59;;;;;;;;;;;;;;;18.32;45.49;100780.78;5170371;27;19923;-56
2022/12/30 03:32:25;;;;;;;;;;;;;;;18.33;45.74;100778.84;5170803;27;20446;-56
2022/12/30 03:34:50;;;;;;;;;;;;;;;18.32;45.82;100767.00;5188895;27;19933;-56
2022/12/30 03:37:24;;;;;;;;;;;;;;;18.32;45.65;100764.25;5203120;27;19923;-56
2022/12/30 03:40:10;;;;;;;;;;;;;;;18.33;45.61;100774.16;5210701;27;19965;-56
2022/12/30 03:42:35;;;;;;;;;;;;;;;18.32;45.75;100767.00;5194722;27;19923;-56
2022/12/30 03:45:01;;;;;;;;;;;;;;;18.33;45.76;100767.81;5170997;27;20298;-56
2022/12/30 03:47:27;;;;;;;;;;;;;;;18.32;45.53;100772.50;5168279;27;19927;-56
2022/12/30 03:49:52;;;;;;;;;;;;;;;18.32;45.60;100767.00;5168048;27;19927;-56
2022/12/30 03:52:20;;;;;;;;;;;;;;;18.32;45.61;100767.00;5167839;27;19930;-56
2022/12/30 03:54:46;;;;;;;;;;;;;;;18.33;45.78;100759.56;5167313;27;20479;-56
2022/12/30 03:57:12;;;;;;;;;;;;;;;18.32;45.77;100755.97;5168535;27;20495;-56
2022/12/30 03:59:37;;;;;;;;;;;;;;;18.32;45.64;100761.50;5184912;27;19954;-56
2022/12/30 04:02:03;;;;;;;;;;;;;;;18.33;45.55;100760.38;5188379;27;19923;-55
2022/12/30 04:04:29;;;;;;;;;;;;;;;18.32;45.74;100766.19;5152819;27;19923;-56
2022/12/30 04:06:54;;;;;;;;;;;;;;;18.32;45.74;100769.75;5147136;27;19950;-56
2022/12/30 04:09:20;;;;;;;;;;;;;;;18.33;45.52;100756.78;5147304;27;19923;-56
2022/12/30 04:11:45;;;;;;;;;;;;;;;18.32;45.64;100761.50;5147206;27;19946;-56
2022/12/30 04:14:11;;;;;;;;;;;;;;;18.33;45.68;100751.28;5146924;27;20329;-56
2022/12/30 04:16:37;;;;;;;;;;;;;;;18.32;45.64;100755.97;5128586;27;19923;-56
2022/12/30 04:19:03;;;;;;;;;;;;;;;18.32;45.57;100758.72;5123356;28;20375;-56
2022/12/30 04:21:28;;;;;;;;;;;;;;;18.32;45.79;100757.91;5133068;28;19938;-56
2022/12/30 04:23:54;;;;;;;;;;;;;;;18.32;45.65;100744.13;5141199;27;19923;-56
2022/12/30 04:26:19;;;;;;;;;;;;;;;18.33;45.58;100746.59;5133089;28;19927;-56
2022/12/30 04:28:45;;;;;;;;;;;;;;;18.33;45.60;100752.09;5142103;27;19927;-56
2022/12/30 04:31:10;;;;;;;;;;;;;;;18.32;45.60;100749.63;5153885;27;19923;-56
2022/12/30 04:33:36;;;;;;;;;;;;;;;18.33;45.69;100743.84;5146525;27;20005;-56
2022/12/30 04:36:02;;;;;;;;;;;;;;;18.32;45.61;100747.72;5138628;27;20783;-56
2022/12/30 04:38:27;;;;;;;;;;;;;;;18.32;45.76;100746.88;5174607;27;19926;-56
2022/12/30 04:40:53;;;;;;;;;;;;;;;18.32;45.78;100746.88;5155674;27;20267;-56
2022/12/30 04:43:19;;;;;;;;;;;;;;;18.32;45.63;100749.63;5166106;27;19951;-56
2022/12/30 04:45:44;;;;;;;;;;;;;;;18.32;45.65;100750.47;5132768;27;19962;-56
2022/12/30 04:48:10;;;;;;;;;;;;;;;18.32;45.59;100761.50;5132909;28;19977;-56
2022/12/30 04:50:35;;;;;;;;;;;;;;;18.32;45.79;100755.97;5113923;28;19934;-55
2022/12/30 04:53:01;;;;;;;;;;;;;;;18.33;45.94;100756.78;5132196;27;20367;-56
2022/12/30 04:55:26;;;;;;;;;;;;;;;18.32;45.63;100761.50;5132328;27;19923;-56
2022/12/30 04:57:52;;;;;;;;;;;;;;;18.32;45.66;100767.00;5134274;27;20318;-56
2022/12/30 05:00:18;;;;;;;;;;;;;;;18.31;45.67;100768.13;5152844;27;20104;-56
2022/12/30 05:02:43;;;;;;;;;;;;;;;18.32;45.83;100777.22;5153258;27;20403;-56
2022/12/30 05:05:09;;;;;;;;;;;;;;;18.33;45.72;100785.19;5132412;27;19927;-56
2022/12/30 05:07:35;;;;;;;;;;;;;;;18.32;45.73;100777.22;5132350;28;19930;-56
2022/12/30 05:10:00;;;;;;;;;;;;;;;18.32;45.56;100783.53;5132556;28;19923;-56
2022/12/30 05:12:26;;;;;;;;;;;;;;;18.33;45.70;100787.13;5132501;28;19931;-56
2022/12/30 05:14:51;;;;;;;;;;;;;;;18.33;45.79;100787.13;5131629;27;19936;-56
2022/12/30 05:17:17;;;;;;;;;;;;;;;18.32;45.77;100778.03;5132159;28;19950;-56
2022/12/30 05:19:43;;;;;;;;;;;;;;;18.33;45.87;100785.19;5132319;28;19960;-56
2022/12/30 05:22:08;;;;;;;;;;;;;;;18.32;45.66;100780.78;5132245;28;19923;-56
2022/12/30 05:27:19;;;;;;;;;;;;;;;18.33;45.71;100776.09;5151043;27;19978;-56
2022/12/30 05:29:45;;;;;;;;;;;;;;;18.33;45.78;100787.13;5117318;27;19923;-56
2022/12/30 05:32:10;;;;;;;;;;;;;;;18.33;45.83;100785.19;5131017;27;19939;-56
2022/12/30 05:34:36;;;;;;;;;;;;;;;18.33;45.78;100787.94;5147721;27;20289;-56
2022/12/30 05:37:02;;;;;;;;;;;;;;;18.33;45.84;100789.88;5143668;27;19971;-56
2022/12/30 05:39:27;;;;;;;;;;;;;;;18.31;45.91;100792.94;5152752;27;19930;-56
2022/12/30 05:41:53;;;;;;;;;;;;;;;18.31;45.84;100790.16;5152774;27;19986;-56
2022/12/30 05:44:18;;;;;;;;;;;;;;;18.33;45.61;100785.19;5133625;27;19931;-56
2022/12/30 05:46:44;;;;;;;;;;;;;;;18.32;45.76;100782.72;5152667;27;19933;-56
2022/12/30 05:49:09;;;;;;;;;;;;;;;18.32;45.64;100772.50;5152592;27;19923;-56
2022/12/30 05:51:35;;;;;;;;;;;;;;;18.32;45.60;100775.28;5152299;27;20382;-56
2022/12/30 05:54:00;;;;;;;;;;;;;;;18.32;45.70;100769.75;5151586;27;19933;-56
2022/12/30 05:56:26;;;;;;;;;;;;;;;18.32;45.60;100771.69;5151375;27;20324;-56
2022/12/30 05:58:52;;;;;;;;;;;;;;;18.31;45.75;100762.59;5151985;27;19926;-56
2022/12/30 06:01:17;;;;;;;;;;;;;;;18.32;45.88;100764.25;5152033;27;20283;-56
2022/12/30 06:03:43;;;;;;;;;;;;;;;18.33;45.75;100768.66;5151935;27;19923;-56
2022/12/30 06:06:09;;;;;;;;;;;;;;;18.32;45.84;100763.44;5151850;27;19945;-56
2022/12/30 06:08:35;;;;;;;;;;;;;;;18.33;45.87;100765.06;5152261;27;19927;-56
2022/12/30 06:11:00;;;;;;;;;;;;;;;18.32;45.86;100755.16;5152242;27;19923;-56
2022/12/30 06:13:26;;;;;;;;;;;;;;;18.32;45.94;100755.97;5152126;27;20298;-56
2022/12/30 06:15:52;;;;;;;;;;;;;;;18.32;45.79;100742.19;5151422;27;19976;-56
2022/12/30 06:18:17;;;;;;;;;;;;;;;18.32;45.76;100744.13;5152103;27;19923;-55
2022/12/30 06:20:43;;;;;;;;;;;;;;;18.33;45.64;100743.00;5133515;27;19934;-56
2022/12/30 06:23:09;;;;;;;;;;;;;;;18.32;45.71;100742.19;5132875;27;20344;-56
2022/12/30 06:25:34;;;;;;;;;;;;;;;18.32;45.83;100744.94;5151557;27;20413;-56
2022/12/30 06:28:00;;;;;;;;;;;;;;;18.32;45.75;100747.72;5151070;27;19927;-56
2022/12/30 06:30:25;;;;;;;;;;;;;;;18.33;45.85;100743.84;5151603;27;20059;-56
2022/12/30 06:32:58;;;;;;;;;;;;;;;18.33;45.66;100746.59;5151090;27;20291;-56
2022/12/30 06:35:23;;;;;;;;;;;;;;;18.33;45.74;100743.84;5145026;27;19923;-56
2022/12/30 06:37:49;;;;;;;;;;;;;;;18.33;45.82;100741.06;5167565;27;19971;-56
2022/12/30 06:40:14;;;;;;;;;;;;;;;18.32;45.78;100736.69;5153786;27;19930;-56
2022/12/30 06:42:40;;;;;;;;;;;;;;;18.33;45.84;100734.75;5172383;27;19926;-56
2022/12/30 06:45:06;;;;;;;;;;;;;;;18.32;45.87;100733.09;5132913;27;19934;-56
2022/12/30 06:47:32;;;;;;;;;;;;;;;18.34;45.67;100733.63;5112618;28;19962;-55
2022/12/30 06:49:57;;;;;;;;;;;;;;;18.33;45.61;100718.19;5130503;28;19927;-56
2022/12/30 06:52:23;;;;;;;;;;;;;;;18.32;45.83;100709.09;5130892;28;19972;-56
2022/12/30 06:54:49;;;;;;;;;;;;;;;18.32;45.56;100708.28;5129804;27;19924;-56
2022/12/30 06:57:14;;;;;;;;;;;;;;;18.33;45.64;100698.91;5112497;28;20387;-56
2022/12/30 06:59:40;;;;;;;;;;;;;;;18.33;45.77;100696.16;5147732;27;19976;-56
2022/12/30 07:02:05;;;;;;;;;;;;;;;18.33;45.66;100687.88;5151232;27;20255;-56
2022/12/30 07:04:31;;;;;;;;;;;;;;;18.32;45.75;100702.78;5136183;27;19924;-56
2022/12/30 07:06:57;;;;;;;;;;;;;;;18.33;45.71;100696.16;5130097;28;19924;-56
2022/12/30 07:09:22;;;;;;;;;;;;;;;18.33;45.86;100696.16;5148849;27;19934;-56
2022/12/30 07:11:48;;;;;;;;;;;;;;;18.32;45.85;100689.81;5151377;27;19923;-56
2022/12/30 07:14:13;;;;;;;;;;;;;;;18.32;45.75;100689.00;5120023;28;19923;-56
2022/12/30 07:16:39;;;;;;;;;;;;;;;18.33;45.83;100702.47;5130711;28;19939;-56
2022/12/30 07:19:05;;;;;;;;;;;;;;;18.33;45.73;100698.91;5130515;28;19930;-55
2022/12/30 07:21:31;;;;;;;;;;;;;;;18.33;45.78;100701.66;5130407;27;20215;-56
2022/12/30 07:23:56;;;;;;;;;;;;;;;18.33;45.64;100702.47;5129644;27;19988;-56
2022/12/30 07:26:22;;;;;;;;;;;;;;;18.33;45.76;100696.97;5129988;28;20146;-56
2022/12/30 07:28:47;;;;;;;;;;;;;;;18.33;45.86;100694.22;5139483;27;19969;-56
2022/12/30 07:31:18;;;;;;;;;;;;;;;18.33;45.67;100687.88;5151101;27;19995;-56
2022/12/30 07:33:44;;;;;;;;;;;;;;;18.32;45.87;100678.78;5144492;27;19932;-56
2022/12/30 07:36:09;;;;;;;;;;;;;;;18.32;45.68;100676.03;5155005;27;19931;-56
2022/12/30 07:38:35;;;;;;;;;;;;;;;18.33;45.87;100671.34;5171477;27;19930;-56
2022/12/30 07:41:00;;;;;;;;;;;;;;;18.33;45.75;100668.56;5171788;27;19923;-56
2022/12/30 07:43:26;;;;;;;;;;;;;;;18.32;45.64;100667.75;5160403;27;20328;-56
2022/12/30 07:45:52;;;;;;;;;;;;;;;18.33;45.87;100665.81;5129985;27;19931;-56
2022/12/30 07:48:17;;;;;;;;;;;;;;;18.32;45.70;100665.00;5130271;28;19927;-56
2022/12/30 07:50:43;;;;;;;;;;;;;;;18.33;45.87;100652.03;5129963;28;19984;-56
2022/12/30 07:53:08;;;;;;;;;;;;;;;18.32;45.84;100651.22;5129277;27;19927;-56
2022/12/30 07:55:37;;;;;;;;;;;;;;;18.33;45.84;100658.38;5132633;27;20395;-56
2022/12/30 07:58:02;;;;;;;;;;;;;;;18.33;45.69;100665.81;5136948;27;19923;-56
2022/12/30 08:00:28;;;;;;;;;;;;;;;18.33;45.76;100654.78;5153823;27;19927;-56
2022/12/30 08:02:53;;;;;;;;;;;;;;;18.33;45.84;100665.81;5153316;27;19923;-56
2022/12/30 08:05:19;;;;;;;;;;;;;;;18.32;45.74;100665.00;5133275;27;19935;-56
2022/12/30 08:07:45;;;;;;;;;;;;;;;18.32;45.65;100653.97;5133071;27;20007;-56
2022/12/30 08:10:10;;;;;;;;;;;;;;;18.33;45.65;100652.03;5133396;28;20287;-56
2022/12/30 08:12:36;;;;;;;;;;;;;;;18.32;45.77;100653.16;5133259;28;19930;-56
2022/12/30 08:15:02;;;;;;;;;;;;;;;18.32;45.84;100642.94;5132827;27;20390;-56
2022/12/30 08:17:28;;;;;;;;;;;;;;;18.32;45.84;100648.47;5114858;28;19977;-56
2022/12/30 08:19:53;;;;;;;;;;;;;;;18.32;45.73;100637.44;5133413;28;19927;-55
2022/12/30 08:22:19;;;;;;;;;;;;;;;18.33;45.67;100632.75;5133157;28;19924;-56
2022/12/30 08:24:44;;;;;;;;;;;;;;;18.32;45.60;100625.59;5132231;27;19958;-56
2022/12/30 08:27:10;;;;;;;;;;;;;;;18.33;45.78;100621.72;5133075;28;19923;-56
2022/12/30 08:29:36;;;;;;;;;;;;;;;18.32;45.76;100618.13;5149663;27;20282;-56
2022/12/30 08:32:01;;;;;;;;;;;;;;;18.33;45.87;100613.44;5153409;27;19923;-56
2022/12/30 08:34:27;;;;;;;;;;;;;;;18.33;45.91;100605.19;5140044;27;20006;-56
2022/12/30 08:36:52;;;;;;;;;;;;;;;18.32;45.61;100604.34;5114579;28;19931;-56
2022/12/30 08:39:18;;;;;;;;;;;;;;;18.32;45.78;100601.59;5133164;28;19982;-56
2022/12/30 08:41:44;;;;;;;;;;;;;;;18.33;45.82;100594.16;5133028;28;19923;-56
2022/12/30 08:44:16;;;;;;;;;;;;;;;18.32;45.86;100582.31;5114502;28;19927;-56
2022/12/30 08:46:41;;;;;;;;;;;;;;;18.32;45.87;100579.53;5149813;27;19930;-56
2022/12/30 08:49:08;;;;;;;;;;;;;;;18.33;45.66;100580.34;5153186;27;19972;-55
2022/12/30 08:51:33;;;;;;;;;;;;;;;18.32;45.78;100574.03;5134318;27;20332;-55
2022/12/30 08:53:59;;;;;;;;;;;;;;;18.32;45.62;100570.44;5152820;27;19927;-55
2022/12/30 08:56:27;;;;;;;;;;;;;;;18.33;45.66;100556.38;5134944;27;19930;-56
2022/12/30 08:58:53;;;;;;;;;;;;;;;18.33;45.69;100561.06;5134585;27;19978;-56
2022/12/30 09:01:20;;;;;;;;;;;;;;;18.33;45.82;100556.38;5153202;27;20025;-56
2022/12/30 09:03:46;;;;;;;;;;;;;;;18.32;45.87;100557.50;5152714;27;20455;-56
2022/12/30 09:06:12;;;;;;;;;;;;;;;18.33;45.65;100544.53;5134464;27;20406;-56
2022/12/30 09:08:38;;;;;;;;;;;;;;;18.33;45.73;100550.03;5130505;28;19927;-56
2022/12/30 09:11:04;;;;;;;;;;;;;;;18.32;45.68;100546.47;5114009;28;20394;-56
2022/12/30 09:13:30;;;;;;;;;;;;;;;18.33;45.63;100550.84;5137972;27;19934;-56
2022/12/30 09:15:56;;;;;;;;;;;;;;;18.33;45.61;100539.00;5152167;27;19923;-56
2022/12/30 09:18:22;;;;;;;;;;;;;;;18.33;45.82;100541.75;5153238;27;19966;-55
2022/12/30 09:20:47;;;;;;;;;;;;;;;18.33;45.79;100530.75;5134455;27;19927;-55
2022/12/30 09:23:13;;;;;;;;;;;;;;;18.32;45.70;100524.41;5152521;27;19926;-56
2022/12/30 09:25:39;;;;;;;;;;;;;;;18.32;45.79;100507.88;5133999;27;19927;-56
2022/12/30 09:28:04;;;;;;;;;;;;;;;18.33;45.65;100494.91;5152039;27;19923;-56
2022/12/30 09:30:30;;;;;;;;;;;;;;;18.33;45.67;100509.50;5152231;27;19923;-56
2022/12/30 09:32:55;;;;;;;;;;;;;;;18.33;45.67;100492.16;5152004;27;19923;-56
2022/12/30 09:35:21;;;;;;;;;;;;;;;18.33;45.94;100486.63;5136922;27;19927;-56
2022/12/30 09:37:46;;;;;;;;;;;;;;;18.33;45.81;100489.38;5132151;28;19976;-56
2022/12/30 09:40:15;;;;;;;;;;;;;;;18.33;45.68;100490.22;5131879;28;19931;-56
2022/12/30 09:45:26;;;;;;;;;;;;;;;18.33;45.84;100478.38;5125555;27;20256;-54
2022/12/30 09:47:52;;;;;;;;;;;;;;;18.33;45.87;100475.59;5131724;28;19923;-56
2022/12/30 09:50:23;;;;;;;;;;;;;;;18.32;45.79;100476.72;5131394;28;20470;-56
2022/12/30 09:52:52;;;;;;;;;;;;;;;18.32;45.69;100469.28;5113155;28;19976;-56
2022/12/30 09:55:19;;;;;;;;;;;;;;;18.33;45.86;100459.06;5131123;27;19924;-56
2022/12/30 09:57:46;;;;;;;;;;;;;;;18.32;45.64;100461.00;5132433;27;20260;-56
2022/12/30 10:00:13;;;;;;;;;;;;;;;18.32;45.82;100457.44;5152060;27;20561;-56
2022/12/30 10:02:45;;;;;;;;;;;;;;;18.33;45.65;100437.00;5152352;27;19923;-56
2022/12/30 10:05:11;;;;;;;;;;;;;;;18.33;45.66;100445.28;5131964;27;20046;-56
2022/12/30 10:07:37;;;;;;;;;;;;;;;18.33;45.81;100448.03;5128888;27;19929;-56
2022/12/30 10:10:05;;;;;;;;;;;;;;;18.32;45.94;100444.47;5173018;27;20188;-56
2022/12/30 10:12:36;;;;;;;;;;;;;;;18.33;45.83;100445.28;5172954;27;19926;-56
2022/12/30 10:15:06;;;;;;;;;;;;;;;18.32;45.82;100441.72;5135139;27;19971;-56
2022/12/30 10:17:51;;;;;;;;;;;;;;;18.33;45.71;100437.84;5112266;28;19923;-56
2022/12/30 10:20:37;;;;;;;;;;;;;;;18.32;45.84;100425.16;5115877;28;19924;-56
2022/12/30 10:23:07;;;;;;;;;;;;;;;18.33;45.84;100417.72;5115375;27;19972;-56
2022/12/30 10:25:38;;;;;;;;;;;;;;;18.33;45.60;100420.47;5130702;27;20018;-56
2022/12/30 10:28:04;;;;;;;;;;;;;;;18.32;45.64;100422.41;5116240;27;20003;-56
2022/12/30 10:30:33;;;;;;;;;;;;;;;18.32;45.65;100408.63;5132747;27;19927;-56
2022/12/30 10:33:00;;;;;;;;;;;;;;;18.32;45.69;100400.34;5150944;27;19969;-56
2022/12/30 10:35:27;;;;;;;;;;;;;;;18.32;45.82;100414.13;5149718;27;19995;-56
2022/12/30 10:38:05;;;;;;;;;;;;;;;18.33;45.83;100409.44;5151904;27;20306;-56
2022/12/30 10:40:35;;;;;;;;;;;;;;;18.33;45.83;100412.19;5150360;27;19972;-56
2022/12/30 10:43:31;;;;;;;;;;;;;;;18.32;45.82;100403.13;5146828;27;19927;-56
2022/12/30 10:48:36;;;;;;;;;;;;;;;18.33;45.58;100387.41;5190241;27;19925;-56
2022/12/30 10:51:02;;;;;;;;;;;;;;;18.33;45.84;100387.41;5189585;27;19930;-55
2022/12/30 10:53:28;;;;;;;;;;;;;;;18.32;45.68;100363.69;5189401;27;19927;-56
2022/12/30 10:55:54;;;;;;;;;;;;;;;18.32;45.69;100367.28;5189494;27;19923;-56
2022/12/30 10:58:24;;;;;;;;;;;;;;;18.32;45.83;100347.97;5189276;27;19930;-56
2022/12/30 11:00:49;;;;;;;;;;;;;;;18.33;45.76;100343.28;5170529;27;19923;-56
2022/12/30 11:03:33;;;;;;;;;;;;;;;18.32;45.86;100339.72;5178518;27;19978;-56
2022/12/30 11:06:15;;;;;;;;;;;;;;;18.32;45.65;100334.19;5168689;27;20279;-56
2022/12/30 11:08:40;;;;;;;;;;;;;;;18.32;45.66;100325.94;5167040;27;19994;-56
2022/12/30 11:11:06;;;;;;;;;;;;;;;18.32;45.94;100309.38;5189830;27;19927;-55
2022/12/30 11:16:27;;;;;;;;;;;;;;;18.31;45.79;100296.72;5132342;27;19931;-56
2022/12/30 11:18:52;;;;;;;;;;;;;;;18.32;45.70;100287.34;5129095;27;19977;-56
2022/12/30 11:21:33;;;;;;;;;;;;;;;18.33;45.69;100268.84;5129247;27;19931;-56
2022/12/30 11:23:59;;;;;;;;;;;;;;;18.33;45.85;100275.19;5137656;27;19942;-56
2022/12/30 11:26:26;;;;;;;;;;;;;;;18.32;45.63;100273.56;5168365;27;19931;-56
2022/12/30 11:28:59;;;;;;;;;;;;;;;18.33;45.78;100279.88;5148943;27;19927;-56
2022/12/30 11:31:34;;;;;;;;;;;;;;;18.32;45.68;100259.78;5149632;27;19931;-55
2022/12/30 11:34:00;;;;;;;;;;;;;;;18.33;45.79;100246.81;5149452;27;20007;-56
2022/12/30 11:36:30;;;;;;;;;;;;;;;18.32;45.68;100246.00;5149757;27;19923;-56
2022/12/30 11:38:56;;;;;;;;;;;;;;;18.33;45.64;100242.13;5168450;27;20225;-56
2022/12/30 11:41:23;;;;;;;;;;;;;;;18.33;45.56;100244.06;5167814;27;20332;-56
2022/12/30 11:44:05;;;;;;;;;;;;;;;18.32;45.75;100226.69;5146711;27;19987;-56
2022/12/30 11:46:32;;;;;;;;;;;;;;;18.32;45.83;100223.13;5159311;27;19957;-56
2022/12/30 11:48:59;;;;;;;;;;;;;;;18.32;45.57;100201.88;5169839;27;19923;-56
2022/12/30 11:51:26;;;;;;;;;;;;;;;18.32;45.71;100193.63;5170012;27;19922;-56
2022/12/30 11:54:11;;;;;;;;;;;;;;;18.32;45.64;100190.84;5171152;27;19927;-53
2022/12/30 11:56:38;;;;;;;;;;;;;;;18.33;45.78;100169.63;5131582;27;20420;-56
2022/12/30 11:59:08;;;;;;;;;;;;;;;18.32;45.74;100174.31;5131580;27;19923;-56
2022/12/30 12:01:42;;;;;;;;;;;;;;;18.32;45.75;100168.00;5153349;27;20316;-56
2022/12/30 12:04:08;;;;;;;;;;;;;;;18.32;45.59;100146.75;5124299;28;19924;-56
2022/12/30 12:06:49;;;;;;;;;;;;;;;18.31;45.60;100142.38;5132649;28;20452;-56
2022/12/30 12:09:14;;;;;;;;;;;;;;;18.32;45.70;100140.44;5114667;28;19923;-56
2022/12/30 12:11:42;;;;;;;;;;;;;;;18.32;45.66;100127.47;5133196;28;20010;-56
2022/12/30 12:14:12;;;;;;;;;;;;;;;18.32;46.04;100121.13;5113722;28;19924;-55
2022/12/30 12:16:43;;;;;;;;;;;;;;;18.33;45.65;100122.78;5132984;28;19954;-56
2022/12/30 12:19:12;;;;;;;;;;;;;;;18.32;45.68;100112.88;5132913;28;19970;-56
2022/12/30 12:21:38;;;;;;;;;;;;;;;18.32;45.80;100099.09;5132758;28;19924;-56
2022/12/30 12:24:13;;;;;;;;;;;;;;;18.32;45.87;100096.31;5132040;27;19949;-56
2022/12/30 12:26:42;;;;;;;;;;;;;;;18.32;45.56;100083.34;5132724;28;20023;-56
2022/12/30 12:29:10;;;;;;;;;;;;;;;18.32;45.87;100072.34;5145350;27;20351;-56
2022/12/30 12:31:40;;;;;;;;;;;;;;;18.32;45.91;100066.81;5134899;27;19931;-56
2022/12/30 12:34:20;;;;;;;;;;;;;;;18.32;45.91;100061.31;5141357;27;19927;-56
2022/12/30 12:37:05;;;;;;;;;;;;;;;18.30;45.62;100072.63;5134753;27;19935;-56
2022/12/30 12:39:40;;;;;;;;;;;;;;;18.32;45.77;100057.72;5151614;27;19924;-55
2022/12/30 12:42:08;;;;;;;;;;;;;;;18.33;45.81;100048.34;5153290;27;20413;-56
2022/12/30 12:44:46;;;;;;;;;;;;;;;18.32;45.69;100038.44;5138915;27;19968;-56
2022/12/30 12:47:32;;;;;;;;;;;;;;;18.33;45.79;100020.78;5132621;28;20007;-56
2022/12/30 12:50:08;;;;;;;;;;;;;;;18.32;45.62;100005.38;5117040;28;20303;-56
2022/12/30 12:52:39;;;;;;;;;;;;;;;18.32;45.63;100013.63;5132366;28;19923;-56
2022/12/30 12:55:22;;;;;;;;;;;;;;;18.31;45.80;99996.28;5149980;27;19972;-56
2022/12/30 12:57:52;;;;;;;;;;;;;;;18.31;45.62;100001.78;5152573;27;20366;-56
2022/12/30 13:00:18;;;;;;;;;;;;;;;18.32;45.68;99991.59;5152702;27;19927;-56
2022/12/30 13:03:03;;;;;;;;;;;;;;;18.33;45.82;99990.47;5134341;27;19984;-56
2022/12/30 13:05:32;;;;;;;;;;;;;;;18.31;45.62;99977.00;5132605;27;20393;-56
2022/12/30 13:08:00;;;;;;;;;;;;;;;18.30;45.67;99965.13;5152589;27;19931;-56
2022/12/30 13:10:56;;;;;;;;;;;;;;;18.30;45.61;99965.13;5136306;27;19938;-56
2022/12/30 13:14:02;;;;;;;;;;;;;;;18.32;45.53;99950.25;5137001;27;19927;-56
2022/12/30 13:16:29;;;;;;;;;;;;;;;18.32;45.65;99944.72;5136773;27;19923;-56
2022/12/30 13:18:54;;;;;;;;;;;;;;;18.32;45.65;99937.28;5152551;27;19992;-56
2022/12/30 13:21:22;;;;;;;;;;;;;;;18.32;45.65;99926.25;5152812;27;20320;-56
2022/12/30 13:23:50;;;;;;;;;;;;;;;18.32;45.61;99917.16;5151992;27;19946;-56
2022/12/30 13:26:15;;;;;;;;;;;;;;;18.31;45.67;99910.84;5133865;27;19927;-55
2022/12/30 13:28:42;;;;;;;;;;;;;;;18.31;45.60;99899.81;5133450;27;19934;-56
2022/12/30 13:31:20;;;;;;;;;;;;;;;18.32;45.83;99908.91;5152471;27;20315;-56
2022/12/30 13:34:06;;;;;;;;;;;;;;;18.32;45.62;99892.34;5133554;27;19923;-56
2022/12/30 13:36:35;;;;;;;;;;;;;;;18.32;45.79;99875.81;5137038;27;19962;-56
2022/12/30 13:39:21;;;;;;;;;;;;;;;18.31;45.67;99869.50;5151993;27;19931;-56